createdAt,value
2022-12-26T00:01:48.009Z,2.00
2022-12-26T00:03:50.275Z,1.70
2022-12-26T00:07:53.738Z,1.77
2022-12-26T00:09:55.559Z,1.60
2022-12-26T00:11:57.271Z,1.65
2022-12-26T00:14:03.193Z,1.85
2022-12-26T00:16:13.306Z,2.05
2022-12-26T00:18:15.272Z,1.70
2022-12-26T00:20:16.930Z,1.85
2022-12-26T00:22:18.765Z,1.95
2022-12-26T00:24:20.478Z,2.00
2022-12-26T00:26:24.129Z,2.03
2022-12-26T00:28:25.845Z,1.73
2022-12-26T00:30:27.381Z,1.88
2022-12-26T00:32:28.899Z,1.90
2022-12-26T00:34:30.889Z,1.90
2022-12-26T00:36:33.886Z,1.75
2022-12-26T00:38:36.942Z,1.85
2022-12-26T00:40:43.594Z,1.85
2022-12-26T00:42:45.210Z,1.65
2022-12-26T00:44:46.764Z,1.98
2022-12-26T00:46:48.764Z,1.95
2022-12-26T00:48:50.392Z,1.65
2022-12-26T00:50:52.958Z,1.80
2022-12-26T00:54:58.537Z,1.80
2022-12-26T00:57:00.542Z,1.65
2022-12-26T00:59:02.275Z,2.03
2022-12-26T01:01:08.526Z,1.58
2022-12-26T01:03:11.755Z,1.55
2022-12-26T01:05:13.338Z,1.58
2022-12-26T01:07:14.921Z,1.73
2022-12-26T01:09:16.588Z,1.65
2022-12-26T01:11:38.369Z,1.60
2022-12-26T01:13:40.261Z,1.48
2022-12-26T01:15:48.653Z,1.85
2022-12-26T01:17:50.546Z,1.67
2022-12-26T01:19:52.156Z,1.80
2022-12-26T01:21:53.884Z,1.50
2022-12-26T01:23:56.180Z,1.35
2022-12-26T01:26:17.504Z,1.80
2022-12-26T01:28:19.754Z,1.55
2022-12-26T01:30:21.497Z,2.00
2022-12-26T01:32:23.425Z,1.58
2022-12-26T01:34:24.984Z,1.70
2022-12-26T01:36:26.616Z,1.30
2022-12-26T01:38:28.699Z,1.65
2022-12-26T01:40:31.305Z,1.48
2022-12-26T01:42:41.347Z,1.73
2022-12-26T01:45:00.422Z,1.30
2022-12-26T01:47:02.039Z,1.55
2022-12-26T01:49:13.459Z,1.65
2022-12-26T01:51:16.208Z,1.80
2022-12-26T01:53:31.350Z,1.80
2022-12-26T01:57:42.464Z,1.52
2022-12-26T01:59:46.143Z,1.42
2022-12-26T02:01:50.710Z,1.52
2022-12-26T02:04:11.054Z,1.55
2022-12-26T02:06:14.279Z,1.70
2022-12-26T02:08:21.460Z,1.50
2022-12-26T02:10:26.461Z,1.85
2022-12-26T02:12:36.319Z,1.35
2022-12-26T02:14:40.666Z,1.35
2022-12-26T02:16:43.270Z,1.45
2022-12-26T02:18:45.507Z,1.67
2022-12-26T02:21:14.800Z,1.38
2022-12-26T02:23:28.426Z,1.60
2022-12-26T02:25:51.860Z,1.50
2022-12-26T02:28:05.902Z,1.60
2022-12-26T02:30:13.568Z,1.70
2022-12-26T02:32:24.768Z,1.73
2022-12-26T02:34:49.869Z,1.60
2022-12-26T02:37:37.668Z,1.20
2022-12-26T02:40:10.980Z,1.60
2022-12-26T02:42:50.042Z,1.70
2022-12-26T02:45:16.740Z,1.58
2022-12-26T02:47:34.551Z,1.52
2022-12-26T02:50:10.255Z,1.63
2022-12-26T02:52:39.790Z,1.33
2022-12-26T02:55:21.650Z,1.45
2022-12-26T02:57:49.336Z,1.50
2022-12-26T03:00:30.223Z,1.35
2022-12-26T03:03:23.221Z,1.60
2022-12-26T03:05:47.051Z,1.50
2022-12-26T03:08:07.817Z,1.40
2022-12-26T03:10:55.087Z,1.33
2022-12-26T03:13:11.347Z,1.30
2022-12-26T03:15:17.395Z,1.20
2022-12-26T03:17:30.089Z,1.85
2022-12-26T03:19:33.599Z,1.75
2022-12-26T03:21:40.937Z,1.58
2022-12-26T03:23:46.371Z,1.50
2022-12-26T03:26:24.779Z,2.45
2022-12-26T03:28:26.970Z,1.35
2022-12-26T03:30:48.003Z,1.63
2022-12-26T03:32:49.635Z,1.40
2022-12-26T03:34:51.727Z,1.67
2022-12-26T03:37:23.128Z,1.80
2022-12-26T03:39:56.098Z,1.67
2022-12-26T03:42:28.689Z,1.25
2022-12-26T03:45:15.984Z,1.80
2022-12-26T03:47:47.918Z,1.77
2022-12-26T03:50:15.879Z,1.90
2022-12-26T03:52:52.236Z,1.40
2022-12-26T03:55:55.194Z,1.95
2022-12-26T03:58:39.274Z,1.50
2022-12-26T04:01:01.900Z,1.90
2022-12-26T04:03:28.859Z,1.70
2022-12-26T04:05:49.664Z,1.92
2022-12-26T04:08:18.901Z,1.45
2022-12-26T04:10:56.964Z,1.63
2022-12-26T04:13:21.568Z,1.67
2022-12-26T04:15:49.643Z,1.50
2022-12-26T04:18:17.214Z,1.48
2022-12-26T04:20:43.839Z,1.83
2022-12-26T04:23:11.773Z,1.45
2022-12-26T04:25:49.741Z,1.50
2022-12-26T04:28:11.620Z,1.60
2022-12-26T04:30:33.199Z,1.52
2022-12-26T04:33:05.200Z,1.80
2022-12-26T04:35:34.159Z,1.48
2022-12-26T04:37:59.476Z,1.77
2022-12-26T04:40:23.022Z,1.67
2022-12-26T04:42:45.840Z,1.58
2022-12-26T04:44:50.168Z,2.25
2022-12-26T04:46:54.084Z,1.33
2022-12-26T04:49:14.739Z,1.80
2022-12-26T04:53:18.843Z,1.55
2022-12-26T04:55:20.588Z,1.35
2022-12-26T04:57:22.130Z,1.48
2022-12-26T04:59:24.209Z,1.50
2022-12-26T05:01:44.336Z,1.33
2022-12-26T05:04:05.756Z,1.65
2022-12-26T05:06:27.762Z,1.20
2022-12-26T05:09:02.220Z,1.50
2022-12-26T05:11:03.864Z,1.35
2022-12-26T05:13:05.415Z,1.23
2022-12-26T05:15:07.316Z,1.33
2022-12-26T05:17:28.859Z,1.40
2022-12-26T05:19:49.151Z,1.30
2022-12-26T05:22:10.006Z,1.60
2022-12-26T05:24:30.709Z,1.30
2022-12-26T05:26:51.634Z,1.38
2022-12-26T05:29:00.105Z,1.40
2022-12-26T05:31:02.646Z,1.77
2022-12-26T05:33:23.255Z,1.52
2022-12-26T05:35:25.002Z,1.55
2022-12-26T05:37:26.739Z,1.75
2022-12-26T05:39:28.325Z,1.63
2022-12-26T05:41:30.391Z,1.67
2022-12-26T05:43:32.057Z,1.40
2022-12-26T05:45:33.945Z,1.55
2022-12-26T05:47:35.549Z,1.63
2022-12-26T05:49:37.168Z,1.40
2022-12-26T05:51:38.816Z,1.30
2022-12-26T05:53:40.784Z,1.50
2022-12-26T05:55:42.583Z,1.40
2022-12-26T05:57:44.156Z,1.45
2022-12-26T05:59:45.716Z,1.35
2022-12-26T06:01:47.506Z,1.42
2022-12-26T06:03:52.312Z,1.25
2022-12-26T06:05:57.379Z,1.40
2022-12-26T06:07:58.949Z,1.45
2022-12-26T06:10:00.837Z,1.20
2022-12-26T06:12:02.426Z,1.42
2022-12-26T06:14:04.752Z,1.30
2022-12-26T06:16:11.868Z,1.40
2022-12-26T06:18:13.459Z,1.45
2022-12-26T06:20:15.098Z,1.40
2022-12-26T06:22:16.592Z,1.67
2022-12-26T06:24:18.445Z,1.50
2022-12-26T06:26:20.007Z,1.45
2022-12-26T06:28:22.920Z,1.85
2022-12-26T06:30:24.912Z,1.20
2022-12-26T06:32:28.040Z,1.55
2022-12-26T06:34:29.882Z,1.73
2022-12-26T06:36:31.449Z,1.38
2022-12-26T06:38:33.636Z,1.30
2022-12-26T06:40:41.712Z,1.48
2022-12-26T06:42:43.323Z,1.58
2022-12-26T06:44:44.915Z,1.48
2022-12-26T06:46:46.499Z,1.30
2022-12-26T06:48:48.169Z,1.23
2022-12-26T06:50:50.375Z,1.30
2022-12-26T06:52:52.184Z,1.40
2022-12-26T06:54:53.757Z,1.30
2022-12-26T06:56:55.396Z,1.42
2022-12-26T06:59:00.462Z,1.75
2022-12-26T07:01:16.606Z,1.58
2022-12-26T07:03:18.257Z,1.35
2022-12-26T07:05:19.849Z,1.23
2022-12-26T07:07:22.016Z,1.40
2022-12-26T07:09:28.411Z,1.38
2022-12-26T07:11:35.936Z,1.50
2022-12-26T07:13:37.671Z,1.40
2022-12-26T07:15:39.256Z,1.77
2022-12-26T07:17:40.965Z,1.77
2022-12-26T07:19:42.620Z,1.63
2022-12-26T07:21:44.445Z,1.73
2022-12-26T07:23:46.007Z,1.65
2022-12-26T07:25:48.921Z,1.90
2022-12-26T07:27:53.805Z,2.00
2022-12-26T07:29:55.453Z,1.58
2022-12-26T07:31:58.097Z,1.67
2022-12-26T07:33:59.735Z,1.45
2022-12-26T07:36:04.665Z,1.30
2022-12-26T07:38:06.370Z,1.70
2022-12-26T07:40:08.616Z,1.55
2022-12-26T07:42:10.614Z,1.30
2022-12-26T07:44:12.260Z,1.40
2022-12-26T07:46:13.959Z,1.75
2022-12-26T07:48:15.585Z,1.83
2022-12-26T07:50:17.219Z,1.20
2022-12-26T07:52:19.833Z,1.60
2022-12-26T07:54:21.458Z,1.63
2022-12-26T07:56:23.865Z,1.38
2022-12-26T07:58:26.137Z,1.58
2022-12-26T08:00:27.661Z,1.70
2022-12-26T08:02:29.471Z,1.60
2022-12-26T08:04:33.988Z,1.67
2022-12-26T08:06:35.520Z,1.50
2022-12-26T08:08:37.309Z,1.40
2022-12-26T08:10:38.870Z,1.80
2022-12-26T08:12:40.599Z,1.60
2022-12-26T08:14:42.427Z,1.65
2022-12-26T08:16:49.749Z,1.90
2022-12-26T08:18:55.161Z,1.60
2022-12-26T08:20:58.150Z,1.83
2022-12-26T08:22:59.731Z,1.73
2022-12-26T08:25:02.497Z,1.83
2022-12-26T08:27:04.656Z,1.38
2022-12-26T08:29:06.225Z,1.92
2022-12-26T08:31:10.290Z,1.92
2022-12-26T08:33:12.822Z,1.90
2022-12-26T08:35:14.618Z,2.00
2022-12-26T08:37:16.322Z,1.88
2022-12-26T08:39:18.498Z,1.92
2022-12-26T08:41:20.745Z,1.90
2022-12-26T08:44:16.525Z,2.00
2022-12-26T08:45:45.508Z,1.85
2022-12-26T08:47:47.035Z,2.10
2022-12-26T08:49:51.355Z,1.83
2022-12-26T08:51:53.064Z,1.90
2022-12-26T08:53:57.073Z,1.90
2022-12-26T08:55:59.483Z,1.50
2022-12-26T08:58:01.098Z,1.58
2022-12-26T09:00:04.551Z,1.80
2022-12-26T09:02:06.848Z,1.55
2022-12-26T09:04:08.597Z,2.00
2022-12-26T09:06:12.394Z,1.60
2022-12-26T09:08:13.913Z,1.60
2022-12-26T09:10:15.457Z,1.75
2022-12-26T09:12:17.273Z,2.10
2022-12-26T09:14:19.458Z,1.90
2022-12-26T09:16:24.312Z,2.10
2022-12-26T09:18:25.983Z,1.73
2022-12-26T09:20:27.584Z,1.88
2022-12-26T09:22:47.737Z,1.88
2022-12-26T09:24:49.517Z,1.80
2022-12-26T09:26:51.340Z,1.95
2022-12-26T09:28:53.953Z,2.25
2022-12-26T09:31:00.245Z,1.85
2022-12-26T09:33:04.021Z,2.08
2022-12-26T09:35:06.403Z,1.65
2022-12-26T09:37:07.971Z,1.63
2022-12-26T09:39:14.199Z,1.85
2022-12-26T09:41:34.437Z,2.13
2022-12-26T09:44:15.953Z,2.17
2022-12-26T09:46:42.620Z,2.20
2022-12-26T09:50:56.188Z,2.00
2022-12-26T09:53:00.645Z,2.22
2022-12-26T09:55:38.212Z,1.73
2022-12-26T09:57:45.945Z,2.25
2022-12-26T09:59:52.555Z,1.95
2022-12-26T10:01:54.461Z,1.70
2022-12-26T10:03:58.397Z,1.73
2022-12-26T10:06:07.105Z,2.10
2022-12-26T10:10:51.507Z,2.10
2022-12-26T10:12:59.240Z,1.80
2022-12-26T10:15:06.699Z,1.90
2022-12-26T10:17:37.805Z,1.80
2022-12-26T10:20:01.246Z,1.90
2022-12-26T10:22:21.125Z,1.85
2022-12-26T10:24:26.871Z,3.00
2022-12-26T10:26:35.243Z,2.17
2022-12-26T10:28:48.812Z,1.90
2022-12-26T10:30:52.674Z,1.85
2022-12-26T10:33:06.552Z,1.70
2022-12-26T10:37:22.218Z,1.83
2022-12-26T10:39:33.621Z,1.48
2022-12-26T10:41:43.485Z,1.50
2022-12-26T10:43:45.699Z,1.50
2022-12-26T10:46:34.265Z,1.30
2022-12-26T10:48:35.943Z,1.50
2022-12-26T10:50:40.060Z,1.25
2022-12-26T10:52:41.684Z,1.50
2022-12-26T10:54:47.723Z,1.23
2022-12-26T10:56:51.845Z,1.67
2022-12-26T10:59:04.123Z,1.40
2022-12-26T11:01:47.510Z,1.33
2022-12-26T11:03:57.350Z,1.17
2022-12-26T11:06:07.984Z,1.20
2022-12-26T11:08:25.413Z,1.50
2022-12-26T11:10:29.034Z,1.30
2022-12-26T11:12:39.901Z,1.23
2022-12-26T11:14:44.911Z,1.42
2022-12-26T11:16:49.193Z,1.48
2022-12-26T11:18:52.302Z,1.60
2022-12-26T11:20:54.639Z,1.17
2022-12-26T11:25:23.230Z,1.15
2022-12-26T11:27:24.741Z,1.55
2022-12-26T11:29:27.374Z,1.88
2022-12-26T11:31:30.910Z,2.08
2022-12-26T11:33:46.467Z,1.52
2022-12-26T11:35:52.459Z,1.50
2022-12-26T11:37:57.631Z,1.50
2022-12-26T11:40:01.468Z,1.70
2022-12-26T11:42:18.146Z,1.70
2022-12-26T11:44:28.004Z,1.23
2022-12-26T11:46:48.635Z,1.40
2022-12-26T11:48:51.381Z,1.40
2022-12-26T11:50:53.768Z,1.30
2022-12-26T11:54:57.057Z,1.50
2022-12-26T11:57:03.987Z,1.50
2022-12-26T11:59:19.266Z,1.65
2022-12-26T12:01:20.875Z,1.77
2022-12-26T12:03:34.158Z,1.40
2022-12-26T12:05:51.770Z,1.42
2022-12-26T12:08:25.811Z,1.20
2022-12-26T12:10:50.562Z,1.45
2022-12-26T12:13:01.664Z,1.13
2022-12-26T12:15:21.602Z,1.20
2022-12-26T12:18:01.644Z,1.42
2022-12-26T12:20:03.529Z,1.40
2022-12-26T12:22:44.907Z,1.23
2022-12-26T12:24:52.750Z,1.20
2022-12-26T12:27:19.182Z,1.27
2022-12-26T12:29:28.558Z,1.23
2022-12-26T12:32:07.206Z,0.95
2022-12-26T12:36:36.765Z,1.20
2022-12-26T12:38:51.448Z,1.10
2022-12-26T12:41:15.700Z,1.08
2022-12-26T12:43:24.172Z,1.02
2022-12-26T12:45:32.649Z,1.15
2022-12-26T12:48:08.319Z,1.20
2022-12-26T12:50:35.623Z,0.95
2022-12-26T12:52:52.193Z,1.08
2022-12-26T12:55:03.430Z,1.10
2022-12-26T12:57:25.056Z,1.20
2022-12-26T12:59:56.154Z,1.00
2022-12-26T13:02:10.309Z,1.00
2022-12-26T13:04:21.674Z,1.20
2022-12-26T13:06:30.487Z,1.10
2022-12-26T13:08:57.256Z,1.30
2022-12-26T13:15:38.599Z,1.05
2022-12-26T13:18:03.815Z,1.02
2022-12-26T13:20:13.101Z,1.33
2022-12-26T13:22:23.479Z,1.10
2022-12-26T13:24:38.680Z,1.40
2022-12-26T13:26:58.011Z,1.50
2022-12-26T13:29:16.114Z,1.30
2022-12-26T13:31:18.305Z,1.48
2022-12-26T13:33:20.184Z,1.40
2022-12-26T13:35:58.764Z,1.50
2022-12-26T13:40:06.867Z,1.75
2022-12-26T13:42:27.584Z,1.77
2022-12-26T13:44:29.207Z,1.58
2022-12-26T13:46:39.906Z,1.13
2022-12-26T13:48:41.658Z,1.38
2022-12-26T13:50:56.080Z,1.20
2022-12-26T13:52:59.042Z,1.60
2022-12-26T13:57:34.698Z,1.77
2022-12-26T13:59:43.848Z,1.88
2022-12-26T14:02:32.182Z,1.60
2022-12-26T14:05:19.155Z,1.73
2022-12-26T14:07:43.115Z,1.38
2022-12-26T14:09:53.547Z,1.73
2022-12-26T14:12:11.825Z,1.30
2022-12-26T14:14:42.346Z,1.50
2022-12-26T14:17:11.105Z,1.33
2022-12-26T14:19:44.939Z,1.10
2022-12-26T14:22:07.133Z,1.20
2022-12-26T14:24:23.922Z,1.10
2022-12-26T14:26:39.985Z,1.40
2022-12-26T14:28:56.699Z,1.10
2022-12-26T14:31:01.330Z,1.70
2022-12-26T14:33:21.310Z,1.20
2022-12-26T14:35:35.707Z,1.20
2022-12-26T14:37:56.999Z,1.38
2022-12-26T14:40:31.217Z,0.95
2022-12-26T14:43:14.087Z,1.17
2022-12-26T14:45:27.679Z,1.05
2022-12-26T14:47:39.717Z,1.40
2022-12-26T14:49:42.254Z,1.08
2022-12-26T14:51:44.685Z,1.00
2022-12-26T14:54:22.223Z,1.17
2022-12-26T14:56:34.479Z,1.10
2022-12-26T14:58:52.381Z,1.02
2022-12-26T15:00:54.796Z,1.20
2022-12-26T15:05:12.235Z,1.70
2022-12-26T15:07:35.927Z,1.67
2022-12-26T15:09:57.487Z,1.75
2022-12-26T15:12:19.755Z,1.02
2022-12-26T15:14:52.933Z,0.90
2022-12-26T15:17:10.203Z,0.93
2022-12-26T15:19:45.269Z,1.00
2022-12-26T15:22:21.469Z,0.93
2022-12-26T15:25:18.608Z,0.70
2022-12-26T15:27:33.132Z,0.77
2022-12-26T15:29:55.068Z,1.00
2022-12-26T15:32:19.794Z,1.00
2022-12-26T15:34:48.004Z,1.00
2022-12-26T15:36:56.876Z,0.70
2022-12-26T15:39:27.248Z,0.60
2022-12-26T15:41:42.544Z,0.45
2022-12-26T15:44:18.579Z,0.60
2022-12-26T15:46:39.816Z,0.50
2022-12-26T15:48:59.766Z,0.40
2022-12-26T15:51:09.747Z,0.43
2022-12-26T15:53:19.881Z,1.90
2022-12-26T15:55:55.071Z,0.50
2022-12-26T15:58:24.939Z,0.50
2022-12-26T16:00:32.805Z,0.50
2022-12-26T16:02:44.535Z,0.60
2022-12-26T16:04:53.915Z,0.50
2022-12-26T16:07:19.776Z,0.50
2022-12-26T16:09:35.842Z,0.80
2022-12-26T16:11:58.651Z,0.95
2022-12-26T16:14:02.953Z,0.40
2022-12-26T16:16:05.104Z,0.20
2022-12-26T16:18:18.460Z,0.20
2022-12-26T16:20:51.402Z,0.20
2022-12-26T16:22:53.674Z,0.20
2022-12-26T16:24:55.615Z,0.25
2022-12-26T16:27:01.295Z,0.28
2022-12-26T16:29:05.065Z,0.20
2022-12-26T16:31:07.504Z,0.10
2022-12-26T16:33:13.976Z,0.10
2022-12-26T16:35:20.660Z,0.03
2022-12-26T16:37:25.129Z,0.05
2022-12-26T16:39:26.677Z,0.20
2022-12-26T16:41:31.699Z,0.20
2022-12-26T16:43:36.364Z,0.10
2022-12-26T16:45:38.551Z,0.10
2022-12-26T16:47:40.430Z,0.10
2022-12-26T16:49:43.467Z,0.60
2022-12-26T16:51:47.613Z,0.05
2022-12-26T16:53:49.229Z,0.10
2022-12-26T16:56:15.094Z,0.10
2022-12-26T16:58:21.879Z,0.13
2022-12-26T17:00:24.561Z,0.10
2022-12-26T17:02:32.152Z,0.10
2022-12-26T17:04:33.988Z,0.30
2022-12-26T17:06:38.725Z,0.10
2022-12-26T17:08:43.097Z,0.30
2022-12-26T17:10:50.327Z,0.13
2022-12-26T17:12:54.117Z,0.28
2022-12-26T17:14:58.556Z,0.40
2022-12-26T17:17:04.270Z,0.20
2022-12-26T17:19:18.860Z,0.20
2022-12-26T17:21:32.059Z,0.30
2022-12-26T17:23:36.482Z,0.30
2022-12-26T17:25:38.201Z,0.20
2022-12-26T17:27:39.875Z,0.32
2022-12-26T17:29:57.410Z,0.30
2022-12-26T17:31:59.122Z,0.30
2022-12-26T17:34:06.367Z,0.30
2022-12-26T17:38:34.924Z,0.40
2022-12-26T17:40:40.131Z,0.30
2022-12-26T17:42:54.060Z,0.30
2022-12-26T17:44:56.780Z,0.40
2022-12-26T17:47:01.389Z,0.50
2022-12-26T17:49:03.064Z,0.40
2022-12-26T17:51:07.288Z,0.30
2022-12-26T17:53:24.085Z,0.30
2022-12-26T17:55:27.222Z,0.30
2022-12-26T17:57:29.798Z,0.20
2022-12-26T18:01:33.087Z,0.40
2022-12-26T18:03:34.725Z,0.20
2022-12-26T18:05:36.897Z,0.20
2022-12-26T18:07:39.104Z,0.20
2022-12-26T18:09:40.903Z,0.20
2022-12-26T18:11:42.510Z,0.20
2022-12-26T18:13:44.270Z,0.10
2022-12-26T18:15:45.999Z,0.30
2022-12-26T18:17:49.921Z,0.70
2022-12-26T18:19:51.775Z,0.32
2022-12-26T18:21:53.442Z,0.30
2022-12-26T18:23:55.674Z,0.47
2022-12-26T18:26:00.281Z,0.30
2022-12-26T18:28:01.901Z,0.38
2022-12-26T18:30:03.944Z,0.40
2022-12-26T18:32:19.363Z,0.68
2022-12-26T18:34:20.985Z,0.55
2022-12-26T18:36:34.558Z,0.50
2022-12-26T18:38:36.095Z,0.45
2022-12-26T18:40:40.873Z,0.55
2022-12-26T18:42:42.475Z,0.80
2022-12-26T18:44:44.406Z,0.52
2022-12-26T18:46:47.099Z,0.40
2022-12-26T18:48:49.196Z,0.50
2022-12-26T18:50:50.861Z,0.68
2022-12-26T18:52:54.252Z,0.60
2022-12-26T18:54:55.917Z,0.52
2022-12-26T18:56:57.589Z,0.35
2022-12-26T18:58:59.151Z,0.40
2022-12-26T19:01:03.301Z,0.50
2022-12-26T19:03:04.916Z,0.60
2022-12-26T19:05:07.226Z,0.60
2022-12-26T19:07:09.060Z,0.57
2022-12-26T19:09:11.840Z,0.60
2022-12-26T19:11:14.470Z,0.60
2022-12-26T19:13:16.427Z,0.50
2022-12-26T19:15:18.397Z,0.50
2022-12-26T19:17:20.027Z,0.50
2022-12-26T19:19:21.659Z,0.75
2022-12-26T19:21:23.258Z,0.70
2022-12-26T19:23:24.813Z,0.90
2022-12-26T19:25:26.607Z,1.00
2022-12-26T19:27:28.268Z,0.57
2022-12-26T19:29:30.293Z,0.65
2022-12-26T19:31:32.206Z,1.00
2022-12-26T19:33:33.826Z,1.40
2022-12-26T19:35:35.387Z,0.75
2022-12-26T19:37:36.988Z,0.68
2022-12-26T19:39:38.601Z,2.15
2022-12-26T19:41:40.423Z,0.88
2022-12-26T19:43:42.694Z,0.50
2022-12-26T19:45:45.678Z,0.60
2022-12-26T19:47:47.484Z,0.70
2022-12-26T19:49:49.031Z,0.82
2022-12-26T19:51:50.996Z,1.00
2022-12-26T19:53:52.725Z,0.93
2022-12-26T19:55:54.593Z,1.00
2022-12-26T19:57:56.208Z,0.70
2022-12-26T19:59:57.780Z,0.85
2022-12-26T20:01:59.762Z,0.90
2022-12-26T20:04:03.964Z,0.80
2022-12-26T20:06:20.069Z,1.02
2022-12-26T20:08:21.655Z,0.70
2022-12-26T20:10:23.574Z,0.90
2022-12-26T20:12:25.138Z,0.80
2022-12-26T20:14:27.558Z,1.60
2022-12-26T20:17:03.876Z,0.70
2022-12-26T20:18:51.729Z,0.75
2022-12-26T20:20:53.982Z,0.60
2022-12-26T20:22:55.639Z,0.60
2022-12-26T20:24:57.182Z,0.60
2022-12-26T20:26:58.755Z,0.90
2022-12-26T20:29:02.019Z,0.65
2022-12-26T20:31:16.075Z,0.60
2022-12-26T20:33:17.911Z,0.50
2022-12-26T20:35:19.448Z,0.70
2022-12-26T20:37:21.030Z,1.15
2022-12-26T20:39:23.286Z,0.60
2022-12-26T20:41:26.299Z,0.70
2022-12-26T20:43:28.145Z,0.50
2022-12-26T20:45:29.689Z,1.08
2022-12-26T20:47:31.353Z,0.60
2022-12-26T20:49:33.565Z,0.80
2022-12-26T20:51:38.149Z,0.63
2022-12-26T20:53:39.907Z,0.95
2022-12-26T20:55:41.536Z,0.70
2022-12-26T20:57:43.157Z,0.60
2022-12-26T20:59:44.728Z,0.70
2022-12-26T21:01:46.450Z,0.60
2022-12-26T21:03:51.326Z,0.65
2022-12-26T21:05:53.208Z,0.80
2022-12-26T21:07:54.810Z,1.05
2022-12-26T21:09:56.351Z,0.80
2022-12-26T21:11:57.882Z,0.70
2022-12-26T21:14:06.070Z,1.80
2022-12-26T21:16:26.648Z,1.02
2022-12-26T21:18:28.248Z,1.00
2022-12-26T21:20:30.434Z,3.50
2022-12-26T21:22:31.998Z,2.38
2022-12-26T21:24:33.615Z,0.70
2022-12-26T21:26:36.639Z,1.42
2022-12-26T21:28:39.520Z,1.15
2022-12-26T21:30:45.292Z,0.95
2022-12-26T21:32:47.360Z,0.90
2022-12-26T21:34:48.936Z,0.60
2022-12-26T21:37:09.746Z,0.70
2022-12-26T21:39:12.257Z,0.80
2022-12-26T21:41:14.498Z,0.70
2022-12-26T21:43:16.859Z,1.10
2022-12-26T21:45:19.630Z,0.77
2022-12-26T21:47:21.514Z,0.90
2022-12-26T21:49:23.134Z,1.00
2022-12-26T21:51:25.763Z,1.00
2022-12-26T21:53:27.340Z,1.00
2022-12-26T21:55:31.032Z,0.95
2022-12-26T21:57:34.153Z,0.82
2022-12-26T21:59:54.941Z,0.88
2022-12-26T22:01:56.667Z,1.00
2022-12-26T22:04:16.862Z,1.00
2022-12-26T22:06:18.557Z,1.00
2022-12-26T22:08:20.485Z,1.05
2022-12-26T22:10:42.214Z,1.00
2022-12-26T22:12:58.886Z,1.08
2022-12-26T22:15:00.730Z,1.35
2022-12-26T22:17:02.342Z,1.08
2022-12-26T22:19:04.311Z,1.10
2022-12-26T22:21:10.852Z,0.90
2022-12-26T22:23:13.459Z,1.00
2022-12-26T22:25:15.839Z,1.02
2022-12-26T22:27:17.486Z,0.70
2022-12-26T22:29:19.050Z,0.70
2022-12-26T22:31:25.122Z,0.70
2022-12-26T22:33:27.642Z,0.60
2022-12-26T22:35:29.183Z,0.80
2022-12-26T22:37:30.850Z,0.80
2022-12-26T22:39:32.881Z,1.13
2022-12-26T22:41:34.692Z,1.02
2022-12-26T22:43:36.912Z,1.05
2022-12-26T22:45:41.180Z,1.20
2022-12-26T22:47:42.951Z,1.30
2022-12-26T22:49:44.604Z,1.30
2022-12-26T22:51:46.391Z,1.65
2022-12-26T22:53:48.319Z,1.83
2022-12-26T22:55:52.552Z,1.70
2022-12-26T22:57:55.804Z,1.90
2022-12-26T23:00:09.665Z,2.03
2022-12-26T23:02:12.149Z,1.75
2022-12-26T23:04:14.172Z,2.00
2022-12-26T23:06:27.609Z,1.83
2022-12-26T23:08:29.893Z,1.70
2022-12-26T23:10:32.532Z,1.88
2022-12-26T23:12:43.277Z,2.10
2022-12-26T23:14:45.080Z,2.28
2022-12-26T23:16:57.700Z,1.92
2022-12-26T23:19:24.257Z,1.77
2022-12-26T23:21:39.044Z,1.67
2022-12-26T23:25:42.547Z,1.70
2022-12-26T23:28:02.868Z,1.98
2022-12-26T23:30:17.900Z,1.67
2022-12-26T23:32:19.511Z,1.60
2022-12-26T23:34:21.278Z,2.33
2022-12-26T23:36:22.891Z,1.75
2022-12-26T23:38:24.589Z,1.52
2022-12-26T23:40:26.490Z,1.52
2022-12-26T23:42:28.168Z,1.85
2022-12-26T23:44:31.057Z,1.63
2022-12-26T23:48:34.229Z,1.17
2022-12-26T23:50:35.803Z,1.45
2022-12-26T23:52:37.988Z,1.60
2022-12-26T23:54:39.677Z,1.40
2022-12-26T23:56:41.219Z,1.40
2022-12-26T23:58:42.878Z,1.55
